ADDS METAR Data INFO
IDs: Format: Raw Decoded Include TAF

Data at: 1248 UTC 19 Oct 2017

KSJC 191238Z 34003KT 10SM FEW010 BKN015 BKN085 13/11 A3000 RMK AO2 T01330106
KSJC 191153Z AUTO 32005KT 8SM OVC014 13/11 A3001 RMK AO2 SLP161 T01330106 10133 20122 58001
KSJC 191143Z AUTO 30005KT 9SM OVC014 13/11 A3001 RMK AO2 T01330106
KSJC 191111Z AUTO 33006KT 10SM OVC015 13/11 A3001 RMK AO2 T01330106
KSJC 191053Z AUTO 33005KT 10SM OVC014 13/11 A3001 RMK AO2 SLP162 T01330106
KSJC 190953Z AUTO 34004KT 10SM OVC011 13/11 A3002 RMK AO2 SLP165 T01330111
KSJC 190853Z AUTO 12003KT 10SM OVC011 13/11 A3001 RMK AO2 SLP163 T01330111 58007
KSJC 190753Z AUTO 00000KT 10SM OVC011 13/11 A3003 RMK AO2 SLP167 T01280111 402280106
KSJC 190740Z AUTO 00000KT 10SM BKN011 12/11 A3003 RMK AO2 T01220106
KSJC 190653Z 33004KT 10SM FEW005 12/11 A3004 RMK AO2 SLP172 LAST T01220106
KSJC 190553Z 31008KT 10SM FEW005 12/11 A3003 RMK AO2 SLP170 T01220106 10200 20117 53006
KSJC 190453Z 30003KT 10SM FEW006 13/11 A3002 RMK AO2 SLP163 T01280106
KSJC 190353Z 25003KT 10SM CLR 13/11 A3001 RMK AO2 SLP163 T01330106
KSJC 190253Z 25006KT 10SM FEW040 FEW085 14/11 A3002 RMK AO2 SLP163 T01390106 51009
KSJC 190153Z 29008KT 10SM FEW042 FEW085 14/10 A3001 RMK AO2 SLP162 T01440100
KSJC 190053Z 31015KT 10SM FEW045 FEW085 16/11 A3000 RMK AO2 SLP157 T01610111
KSJC 182353Z 31012KT 10SM FEW045 FEW085 20/12 A2999 RMK AO2 SLP154 T02000117 10228 20161 55008
KSJC 182253Z 30009KT 9SM FEW045 FEW090 22/09 A2999 RMK AO2 SLP153 T02170094 $
KSJC 182153Z 31009KT 9SM FEW090 FEW200 23/04 A3000 RMK AO2 SLP156 T02280039 $
KSJC 182053Z 30005KT 7SM FEW044 FEW095 22/08 A3001 RMK AO2 SLP162 T02170083 58023 $
KSJC 181953Z VRB03KT 4SM HZ FEW100 21/11 A3004 RMK AO2 SLP173 T02060106 $
KSJC 181853Z 00000KT 3SM HZ FEW100 19/10 A3007 RMK AO2 SLP181 T01890100 $
KSJC 181753Z 00000KT 3SM HZ FEW100 16/11 A3008 RMK AO2 SLP185 T01610106 10161 20106 50009
KSJC 181707Z 00000KT 2 1/2SM HZ FEW002 FEW005 SCT110 14/11 A3008 RMK AO2 T01440106
KSJC 181653Z 00000KT 2 1/2SM HZ FEW002 SCT004 BKN008 13/11 A3008 RMK AO2 SLP185 T01330106
KSJC 181553Z 00000KT 1 1/2SM BR FEW002 BKN005 OVC007 13/11 A3007 RMK AO2 SLP182 T01280111
KSJC 181453Z 00000KT 2SM BR FEW002 BKN005 OVC007 12/11 A3005 RMK AO2 SLP176 T01220111 50005
KSJC 181353Z 00000KT 2SM BR FEW002 BKN005 OVC007 12/11 A3005 RMK AO2 SLP176 T01220106
KSJC 181253Z 00000KT 4SM BR BKN007 12/11 A3005 RMK AO2 SLP174 T01170106
KSJC 181243Z 24003KT 4SM BR BKN007 11/10 A3004 RMK AO2 T01110100
KSJC 181228Z 28004KT 5SM BR SCT007 11/10 A3004 RMK AO2 T01060100
KSJC 181153Z AUTO 00000KT 6SM BR CLR 11/10 A3004 RMK AO2 SLP171 T01110100 10156 20111 56008
KSJC 181053Z AUTO 00000KT 10SM FEW007 12/10 A3004 RMK AO2 SLP172 T01220100
KSJC 181048Z AUTO 19003KT 10SM FEW007 12/10 A3005 RMK AO2
KSJC 181024Z AUTO 21003KT 10SM BKN007 12/10 A3005 RMK AO2 T01220100
KSJC 180953Z AUTO 27004KT 10SM FEW007 12/11 A3006 RMK AO2 SLP179 T01220106
KSJC 180946Z AUTO 26004KT 10SM FEW008 12/11 A3006 RMK AO2 T01220106
KSJC 180853Z AUTO 00000KT 10SM CLR 13/12 A3006 RMK AO2 SLP179 T01330117 58001
KSJC 180753Z AUTO 28007KT 10SM CLR 13/11 A3007 RMK AO2 SLP181 T01280111 402670122
KSJC 180653Z 29004KT 10SM FEW055 SCT110 14/12 A3007 RMK AO2 SLP180 LAST T01440117
KSJC 180553Z 00000KT 10SM FEW065 SCT110 15/11 A3006 RMK AO2 SLP179 T01500106 10261 20150 53001
KSJC 180453Z 27003KT 10SM FEW010 FEW095 BKN110 16/12 A3006 RMK AO2 SLP177 T01610117
KSJC 180353Z 00000KT 10SM FEW010 SCT120 17/10 A3006 RMK AO2 SLP178 T01720100
KSJC 180253Z 25004KT 10SM FEW011 SCT120 19/07 A3006 RMK AO2 SLP179 T01890072 53010
KSJC 180153Z 28005KT 10SM FEW012 SCT070 BKN120 21/04 A3004 RMK AO2 SLP173 T02060039
KSJC 180053Z 29008KT 5SM HZ FEW014 SCT075 BKN120 24/05 A3003 RMK AO2 SLP169 T02390050